createdAt,value
2019-02-05T00:01:07.198Z,38.98
2019-02-05T00:02:14.305Z,42.17
2019-02-05T00:03:23.646Z,38.50
2019-02-05T00:04:30.794Z,39.80
2019-02-05T00:05:38.011Z,41.23
2019-02-05T00:06:45.958Z,35.92
2019-02-05T00:07:53.689Z,36.68
2019-02-05T00:09:00.828Z,40.50
2019-02-05T00:10:10.955Z,35.88
2019-02-05T00:11:18.409Z,37.63
2019-02-05T00:12:25.447Z,39.03
2019-02-05T00:13:32.606Z,33.92
2019-02-05T00:14:41.388Z,36.13
2019-02-05T00:15:48.361Z,35.43
2019-02-05T00:16:55.519Z,40.90
2019-02-05T00:18:03.179Z,37.98
2019-02-05T00:19:10.101Z,37.40
2019-02-05T00:20:17.608Z,38.45
2019-02-05T00:21:24.799Z,40.98
2019-02-05T00:22:31.882Z,33.90
2019-02-05T00:23:39.778Z,36.23
2019-02-05T00:24:46.696Z,38.53
2019-02-05T00:25:53.701Z,33.65
2019-02-05T00:27:01.219Z,39.67
2019-02-05T00:28:08.135Z,34.05
2019-02-05T00:29:15.812Z,38.38
2019-02-05T00:30:23.864Z,35.63
2019-02-05T00:31:30.806Z,36.90
2019-02-05T00:32:37.977Z,40.43
2019-02-05T00:33:45.974Z,38.17
2019-02-05T00:34:53.094Z,39.45
2019-02-05T00:36:01.402Z,37.65
2019-02-05T00:37:09.508Z,35.63
2019-02-05T00:38:17.178Z,39.23
2019-02-05T00:39:24.814Z,38.65
2019-02-05T00:40:34.470Z,40.58
2019-02-05T00:41:41.595Z,41.23
2019-02-05T00:42:49.429Z,34.18
2019-02-05T00:43:57.006Z,41.10
2019-02-05T00:45:04.649Z,45.40
2019-02-05T00:46:12.270Z,42.53
2019-02-05T00:47:19.999Z,44.48
2019-02-05T00:48:26.813Z,45.00
2019-02-05T00:49:34.232Z,48.68
2019-02-05T00:50:41.605Z,43.52
2019-02-05T00:51:48.759Z,40.20
2019-02-05T00:52:55.812Z,45.23
2019-02-05T00:54:03.569Z,41.55
2019-02-05T00:55:16.463Z,42.90
2019-02-05T00:56:23.401Z,42.93
2019-02-05T00:57:30.666Z,40.50
2019-02-05T00:58:37.504Z,40.38
2019-02-05T00:59:44.472Z,41.45
2019-02-05T01:00:52.248Z,41.10
2019-02-05T01:01:59.392Z,41.20
2019-02-05T01:03:07.499Z,41.35
2019-02-05T01:04:14.974Z,39.20
2019-02-05T01:05:21.713Z,45.80
2019-02-05T01:06:29.653Z,41.53
2019-02-05T01:07:37.472Z,39.33
2019-02-05T01:08:45.205Z,39.70
2019-02-05T01:09:53.244Z,36.68
2019-02-05T01:11:00.516Z,35.38
2019-02-05T01:12:07.495Z,39.70
2019-02-05T01:13:15.756Z,36.05
2019-02-05T01:14:23.972Z,35.50
2019-02-05T01:15:31.444Z,40.73
2019-02-05T01:16:39.015Z,41.10
2019-02-05T01:17:46.864Z,41.23
2019-02-05T01:18:53.976Z,40.38
2019-02-05T01:20:00.956Z,39.58
2019-02-05T01:21:07.962Z,41.28
2019-02-05T01:22:14.586Z,40.40
2019-02-05T01:23:21.878Z,39.92
2019-02-05T01:24:29.767Z,37.30
2019-02-05T01:25:36.883Z,37.45
2019-02-05T01:26:44.647Z,37.65
2019-02-05T01:27:52.568Z,33.13
2019-02-05T01:28:59.599Z,39.23
2019-02-05T01:30:16.406Z,35.95
2019-02-05T01:31:24.198Z,40.85
2019-02-05T01:32:31.155Z,42.55
2019-02-05T01:33:38.546Z,39.42
2019-02-05T01:34:46.549Z,40.03
2019-02-05T01:35:53.555Z,37.83
2019-02-05T01:37:00.504Z,38.08
2019-02-05T01:38:07.699Z,35.23
2019-02-05T01:39:15.041Z,36.85
2019-02-05T01:40:27.420Z,38.75
2019-02-05T01:41:35.812Z,37.15
2019-02-05T01:42:42.517Z,35.80
2019-02-05T01:43:49.922Z,36.15
2019-02-05T01:44:57.080Z,34.10
2019-02-05T01:46:05.782Z,38.00
2019-02-05T01:47:13.859Z,36.28
2019-02-05T01:48:22.111Z,35.38
2019-02-05T01:49:29.101Z,36.38
2019-02-05T01:50:36.704Z,42.88
2019-02-05T01:51:43.503Z,37.75
2019-02-05T01:52:51.329Z,41.25
2019-02-05T01:53:59.649Z,37.28
2019-02-05T01:55:09.757Z,36.83
2019-02-05T01:56:17.868Z,37.05
2019-02-05T01:57:25.605Z,35.85
2019-02-05T01:58:33.605Z,41.80
2019-02-05T01:59:40.976Z,38.80
2019-02-05T02:00:48.160Z,38.63
2019-02-05T02:01:54.821Z,40.60
2019-02-05T02:03:02.690Z,36.88
2019-02-05T02:04:10.139Z,40.25
2019-02-05T02:05:17.050Z,40.28
2019-02-05T02:06:24.512Z,42.62
2019-02-05T02:07:31.982Z,37.20
2019-02-05T02:08:39.657Z,33.65
2019-02-05T02:09:47.303Z,38.20
2019-02-05T02:10:55.492Z,37.15
2019-02-05T02:12:03.826Z,36.53
2019-02-05T02:13:11.739Z,35.03
2019-02-05T02:14:19.441Z,40.55
2019-02-05T02:15:26.527Z,36.40
2019-02-05T02:16:34.253Z,34.25
2019-02-05T02:17:41.866Z,38.73
2019-02-05T02:18:48.854Z,42.85
2019-02-05T02:19:56.254Z,40.63
2019-02-05T02:21:04.235Z,36.73
2019-02-05T02:22:11.554Z,34.50
2019-02-05T02:23:18.438Z,35.55
2019-02-05T02:24:26.132Z,36.93
2019-02-05T02:25:34.632Z,34.27
2019-02-05T02:26:51.593Z,37.15
2019-02-05T02:27:51.434Z,37.70
2019-02-05T02:28:58.651Z,35.90
2019-02-05T02:30:08.308Z,36.20
2019-02-05T02:31:15.849Z,35.98
2019-02-05T02:32:22.524Z,35.33
2019-02-05T02:33:29.616Z,33.78
2019-02-05T02:34:36.936Z,35.70
2019-02-05T02:35:44.835Z,36.73
2019-02-05T02:36:52.004Z,38.30
2019-02-05T02:38:00.950Z,40.98
2019-02-05T02:39:08.650Z,36.33
2019-02-05T02:40:17.959Z,39.38
2019-02-05T02:41:25.827Z,38.45
2019-02-05T02:42:32.391Z,36.13
2019-02-05T02:43:39.158Z,36.77
2019-02-05T02:44:46.809Z,36.30
2019-02-05T02:45:53.834Z,37.53
2019-02-05T02:47:01.685Z,38.60
2019-02-05T02:48:09.421Z,41.30
2019-02-05T02:49:16.177Z,41.55
2019-02-05T02:50:23.940Z,38.42
2019-02-05T02:51:31.964Z,37.95
2019-02-05T02:52:39.027Z,37.93
2019-02-05T02:53:46.353Z,45.60
2019-02-05T02:54:54.335Z,38.40
2019-02-05T02:56:01.738Z,36.23
2019-02-05T02:57:11.313Z,40.92
2019-02-05T02:58:18.731Z,43.42
2019-02-05T02:59:25.540Z,42.27
2019-02-05T03:00:33.307Z,43.98
2019-02-05T03:01:41.070Z,41.13
2019-02-05T03:02:47.718Z,42.05
2019-02-05T03:03:55.208Z,37.73
2019-02-05T03:05:02.875Z,39.83
2019-02-05T03:06:09.656Z,38.90
2019-02-05T03:07:17.182Z,38.23
2019-02-05T03:08:24.645Z,42.75
2019-02-05T03:09:31.443Z,39.70
2019-02-05T03:10:38.404Z,38.73
2019-02-05T03:11:45.702Z,48.20
2019-02-05T03:12:52.414Z,43.92
2019-02-05T03:14:00.374Z,40.40
2019-02-05T03:15:11.194Z,41.37
2019-02-05T03:16:18.078Z,42.40
2019-02-05T03:17:25.662Z,44.08
2019-02-05T03:18:32.781Z,45.10
2019-02-05T03:19:39.633Z,41.60
2019-02-05T03:20:47.305Z,41.30
2019-02-05T03:21:55.624Z,42.75
2019-02-05T03:23:04.000Z,43.05
2019-02-05T03:24:12.138Z,43.50
2019-02-05T03:25:25.505Z,45.78
2019-02-05T03:26:31.917Z,43.87
2019-02-05T03:27:38.863Z,43.48
2019-02-05T03:28:46.308Z,48.08
2019-02-05T03:29:54.731Z,43.10
2019-02-05T03:31:01.722Z,45.38
2019-02-05T03:32:09.475Z,40.38
2019-02-05T03:33:17.097Z,48.48
2019-02-05T03:34:24.350Z,43.73
2019-02-05T03:35:31.415Z,43.17
2019-02-05T03:36:38.851Z,44.03
2019-02-05T03:37:45.400Z,43.38
2019-02-05T03:38:52.612Z,44.33
2019-02-05T03:39:59.800Z,47.45
2019-02-05T03:41:08.287Z,44.70
2019-02-05T03:42:14.493Z,44.18
2019-02-05T03:43:22.302Z,46.80
2019-02-05T03:44:29.272Z,43.02
2019-02-05T03:45:36.493Z,43.65
2019-02-05T03:46:43.653Z,42.85
2019-02-05T03:47:51.813Z,42.62
2019-02-05T03:48:59.068Z,47.62
2019-02-05T03:50:06.888Z,48.87
2019-02-05T03:51:34.311Z,45.33
2019-02-05T03:52:45.369Z,44.80
2019-02-05T03:54:18.474Z,51.30
2019-02-05T03:55:50.686Z,46.45
2019-02-05T03:57:30.720Z,43.65
2019-02-05T03:59:03.970Z,44.48
2019-02-05T04:00:32.305Z,44.40
2019-02-05T04:01:48.725Z,43.05
2019-02-05T04:03:20.782Z,45.48
2019-02-05T04:04:40.837Z,45.50
2019-02-05T04:06:07.492Z,45.63
2019-02-05T04:07:56.657Z,44.38
2019-02-05T04:09:16.792Z,41.98
2019-02-05T04:10:58.374Z,46.88
2019-02-05T04:12:25.433Z,43.75
2019-02-05T04:13:49.676Z,45.67
2019-02-05T04:15:32.736Z,44.35
2019-02-05T04:17:02.601Z,44.53
2019-02-05T04:18:26.697Z,40.70
2019-02-05T04:19:53.197Z,44.63
2019-02-05T04:21:29.077Z,45.75
2019-02-05T04:23:16.574Z,45.90
2019-02-05T04:24:59.293Z,38.75
2019-02-05T04:26:15.793Z,42.73
2019-02-05T04:27:43.703Z,44.40
2019-02-05T04:29:13.679Z,42.13
2019-02-05T04:30:42.607Z,44.40
2019-02-05T04:32:25.892Z,46.02
2019-02-05T04:33:56.457Z,47.85
2019-02-05T04:35:48.073Z,46.58
2019-02-05T04:37:14.445Z,54.95
2019-02-05T04:38:43.350Z,40.58
2019-02-05T04:40:23.409Z,50.52
2019-02-05T04:41:49.770Z,43.63
2019-02-05T04:43:40.250Z,45.98
2019-02-05T04:45:02.626Z,41.13
2019-02-05T04:46:42.726Z,45.08
2019-02-05T04:48:08.539Z,43.78
2019-02-05T04:49:34.460Z,43.20
2019-02-05T04:50:52.402Z,44.18
2019-02-05T04:52:21.202Z,43.02
2019-02-05T04:53:49.771Z,45.00
2019-02-05T04:55:12.705Z,47.73
2019-02-05T04:56:49.663Z,43.83
2019-02-05T04:58:35.531Z,39.90
2019-02-05T05:00:05.116Z,46.75
2019-02-05T05:01:28.535Z,47.10
2019-02-05T05:03:10.277Z,48.58
2019-02-05T05:04:27.203Z,46.75
2019-02-05T05:05:50.116Z,45.55
2019-02-05T05:07:09.399Z,43.35
2019-02-05T05:08:39.327Z,46.68
2019-02-05T05:09:52.628Z,44.13
2019-02-05T05:10:59.486Z,47.70
2019-02-05T05:12:05.797Z,49.83
2019-02-05T05:13:12.965Z,48.90
2019-02-05T05:14:18.998Z,43.55
2019-02-05T05:15:28.470Z,46.48
2019-02-05T05:16:36.478Z,42.33
2019-02-05T05:17:43.120Z,43.48
2019-02-05T05:18:49.136Z,46.28
2019-02-05T05:19:55.820Z,43.90
2019-02-05T05:21:02.546Z,43.83
2019-02-05T05:22:09.967Z,44.23
2019-02-05T05:23:16.548Z,45.40
2019-02-05T05:24:22.838Z,41.95
2019-02-05T05:25:29.800Z,46.60
2019-02-05T05:26:36.732Z,43.90
2019-02-05T05:27:42.820Z,41.98
2019-02-05T05:28:49.457Z,44.90
2019-02-05T05:29:56.360Z,44.90
2019-02-05T05:31:02.891Z,43.10
2019-02-05T05:32:10.470Z,45.25
2019-02-05T05:33:17.618Z,46.83
2019-02-05T05:34:23.636Z,48.05
2019-02-05T05:35:41.674Z,44.45
2019-02-05T05:36:38.058Z,41.58
2019-02-05T05:37:44.021Z,48.50
2019-02-05T05:38:50.747Z,46.90
2019-02-05T05:39:57.910Z,51.35
2019-02-05T05:41:04.199Z,57.90
2019-02-05T05:42:11.490Z,55.67
2019-02-05T05:43:18.317Z,47.33
2019-02-05T05:44:24.504Z,48.85
2019-02-05T05:45:31.446Z,47.60
2019-02-05T05:46:38.258Z,44.18
2019-02-05T05:47:44.428Z,47.88
2019-02-05T05:48:51.241Z,49.20
2019-02-05T05:49:58.999Z,47.65
2019-02-05T05:51:05.179Z,48.05
2019-02-05T05:52:11.707Z,49.33
2019-02-05T05:53:18.936Z,45.25
2019-02-05T05:54:24.666Z,47.95
2019-02-05T05:55:32.065Z,49.83
2019-02-05T05:56:39.042Z,47.40
2019-02-05T05:57:45.058Z,47.43
2019-02-05T05:58:51.511Z,43.75
2019-02-05T05:59:58.438Z,45.63
2019-02-05T06:01:04.617Z,46.20
2019-02-05T06:02:12.565Z,49.10
2019-02-05T06:03:18.565Z,43.52
2019-02-05T06:04:25.034Z,45.45
2019-02-05T06:05:31.815Z,45.83
2019-02-05T06:06:38.564Z,50.30
2019-02-05T06:07:44.835Z,45.67
2019-02-05T06:08:51.884Z,41.68
2019-02-05T06:09:58.733Z,45.15
2019-02-05T06:11:05.974Z,44.77
2019-02-05T06:12:12.684Z,46.80
2019-02-05T06:13:20.043Z,46.50
2019-02-05T06:14:26.537Z,44.70
2019-02-05T06:15:35.713Z,45.92
2019-02-05T06:16:41.029Z,53.30
2019-02-05T06:17:47.209Z,47.90
2019-02-05T06:18:54.927Z,49.60
2019-02-05T06:20:02.539Z,47.25
2019-02-05T06:21:08.367Z,44.70
2019-02-05T06:22:15.257Z,47.00
2019-02-05T06:23:22.188Z,48.13
2019-02-05T06:24:27.945Z,47.75
2019-02-05T06:25:34.685Z,47.62
2019-02-05T06:26:42.350Z,47.08
2019-02-05T06:27:48.637Z,49.33
2019-02-05T06:28:55.178Z,48.90
2019-02-05T06:30:01.757Z,51.92
2019-02-05T06:31:07.794Z,54.55
2019-02-05T06:32:14.146Z,46.68
2019-02-05T06:33:23.591Z,45.92
2019-02-05T06:34:29.543Z,47.13
2019-02-05T06:35:36.547Z,52.40
2019-02-05T06:36:44.204Z,49.65
2019-02-05T06:37:50.445Z,45.63
2019-02-05T06:38:58.205Z,48.73
2019-02-05T06:40:07.207Z,45.60
2019-02-05T06:41:13.640Z,46.65
2019-02-05T06:42:20.234Z,46.40
2019-02-05T06:43:27.408Z,46.45
2019-02-05T06:44:34.612Z,47.67
2019-02-05T06:45:42.336Z,48.23
2019-02-05T06:46:50.457Z,54.65
2019-02-05T06:47:56.536Z,51.02
2019-02-05T06:49:04.374Z,56.20
2019-02-05T06:50:13.782Z,54.63
2019-02-05T06:51:19.792Z,50.33
2019-02-05T06:52:28.194Z,54.88
2019-02-05T06:53:35.407Z,52.62
2019-02-05T06:54:41.145Z,51.68
2019-02-05T06:55:48.125Z,50.65
2019-02-05T06:56:54.749Z,53.60
2019-02-05T06:58:01.316Z,53.50
2019-02-05T06:59:08.452Z,47.98
2019-02-05T07:00:22.844Z,50.83
2019-02-05T07:01:29.627Z,46.53
2019-02-05T07:02:36.004Z,54.03
2019-02-05T07:03:44.957Z,49.70
2019-02-05T07:04:52.053Z,50.43
2019-02-05T07:05:58.444Z,50.67
2019-02-05T07:07:05.688Z,46.58
2019-02-05T07:08:11.755Z,48.40
2019-02-05T07:09:18.334Z,51.88
2019-02-05T07:10:28.695Z,50.65
2019-02-05T07:11:34.740Z,47.90
2019-02-05T07:12:41.345Z,49.85
2019-02-05T07:13:47.608Z,55.03
2019-02-05T07:14:54.515Z,49.55
2019-02-05T07:16:00.425Z,48.80
2019-02-05T07:17:07.495Z,53.63
2019-02-05T07:18:13.527Z,52.65
2019-02-05T07:19:19.654Z,56.53
2019-02-05T07:20:27.545Z,58.68
2019-02-05T07:21:35.626Z,57.53
2019-02-05T07:22:41.847Z,54.50
2019-02-05T07:23:48.604Z,51.28
2019-02-05T07:24:55.052Z,50.55
2019-02-05T07:26:01.205Z,56.00
2019-02-05T07:27:08.097Z,54.40
2019-02-05T07:28:15.220Z,54.98
2019-02-05T07:29:21.486Z,53.20
2019-02-05T07:30:28.840Z,53.58
2019-02-05T07:31:35.767Z,55.00
2019-02-05T07:32:41.919Z,54.18
2019-02-05T07:33:49.009Z,52.25
2019-02-05T07:34:55.725Z,50.05
2019-02-05T07:36:01.755Z,55.63
2019-02-05T07:37:08.485Z,46.85
2019-02-05T07:38:15.594Z,50.12
2019-02-05T07:39:21.760Z,51.37
2019-02-05T07:40:27.798Z,50.10
2019-02-05T07:41:40.977Z,50.75
2019-02-05T07:42:46.657Z,52.43
2019-02-05T07:43:53.329Z,49.08
2019-02-05T07:45:00.318Z,53.25
2019-02-05T07:46:06.429Z,49.33
2019-02-05T07:47:13.030Z,47.98
2019-02-05T07:48:22.058Z,49.90
2019-02-05T07:49:29.322Z,51.20
2019-02-05T07:50:35.726Z,50.98
2019-02-05T07:51:43.661Z,50.73
2019-02-05T07:52:50.604Z,52.50
2019-02-05T07:53:58.597Z,47.62
2019-02-05T07:55:07.505Z,50.38
2019-02-05T07:56:13.385Z,54.90
2019-02-05T07:57:19.633Z,50.33
2019-02-05T07:58:26.418Z,56.83
2019-02-05T07:59:32.498Z,50.25
2019-02-05T08:00:39.394Z,51.60
2019-02-05T08:01:45.920Z,51.70
2019-02-05T08:02:52.893Z,51.05
2019-02-05T08:03:59.342Z,50.35
2019-02-05T08:05:13.709Z,51.28
2019-02-05T08:06:21.263Z,49.08
2019-02-05T08:07:30.114Z,53.42
2019-02-05T08:08:36.535Z,49.48
2019-02-05T08:09:44.320Z,45.60
2019-02-05T08:10:50.732Z,48.55
2019-02-05T08:11:59.193Z,48.50
2019-02-05T08:13:05.303Z,52.27
2019-02-05T08:14:12.780Z,54.27
2019-02-05T08:15:30.260Z,49.27
2019-02-05T08:16:36.321Z,52.55
2019-02-05T08:17:42.861Z,49.90
2019-02-05T08:18:49.322Z,52.83
2019-02-05T08:19:55.623Z,47.50
2019-02-05T08:21:03.012Z,50.65
2019-02-05T08:22:09.704Z,49.88
2019-02-05T08:23:17.356Z,50.80
2019-02-05T08:24:24.969Z,55.95
2019-02-05T08:25:33.112Z,50.63
2019-02-05T08:26:39.681Z,49.10
2019-02-05T08:27:47.240Z,51.33
2019-02-05T08:28:56.534Z,54.38
2019-02-05T08:30:03.166Z,47.55
2019-02-05T08:31:10.220Z,48.35
2019-02-05T08:32:18.393Z,49.18
2019-02-05T08:33:24.780Z,50.78
2019-02-05T08:34:31.068Z,57.35
2019-02-05T08:35:37.833Z,47.30
2019-02-05T08:36:43.859Z,54.77
2019-02-05T08:37:51.899Z,49.27
2019-02-05T08:38:59.760Z,47.20
2019-02-05T08:40:16.021Z,53.10
2019-02-05T08:41:23.373Z,51.42
2019-02-05T08:42:33.060Z,49.88
2019-02-05T08:43:38.881Z,48.90
2019-02-05T08:44:46.166Z,53.95
2019-02-05T08:45:56.678Z,52.15
2019-02-05T08:47:00.360Z,50.28
2019-02-05T08:48:12.436Z,50.30
2019-02-05T08:49:19.193Z,47.78
2019-02-05T08:50:28.080Z,50.08
2019-02-05T08:51:34.893Z,46.83
2019-02-05T08:52:42.780Z,47.10
2019-02-05T08:53:49.256Z,51.80
2019-02-05T08:54:56.093Z,49.05
2019-02-05T08:56:02.954Z,51.10
2019-02-05T08:57:09.499Z,48.28
2019-02-05T08:58:16.333Z,49.27
2019-02-05T08:59:22.900Z,46.18
2019-02-05T09:00:35.213Z,51.65
2019-02-05T09:01:41.893Z,52.45
2019-02-05T09:02:48.503Z,49.20
2019-02-05T09:03:54.760Z,52.78
2019-02-05T09:05:02.162Z,53.42
2019-02-05T09:06:09.241Z,46.23
2019-02-05T09:07:15.502Z,52.75
2019-02-05T09:08:22.073Z,50.88
2019-02-05T09:09:29.101Z,48.48
2019-02-05T09:10:38.443Z,49.83
2019-02-05T09:11:45.402Z,47.45
2019-02-05T09:12:53.102Z,50.38
2019-02-05T09:14:10.336Z,53.28
2019-02-05T09:15:11.734Z,47.10
2019-02-05T09:16:17.740Z,48.90
2019-02-05T09:17:24.351Z,52.38
2019-02-05T09:18:30.740Z,54.25
2019-02-05T09:19:36.953Z,55.48
2019-02-05T09:20:42.713Z,48.68
2019-02-05T09:21:48.887Z,48.42
2019-02-05T09:22:55.152Z,52.35
2019-02-05T09:24:01.861Z,51.23
2019-02-05T09:25:10.740Z,47.20
2019-02-05T09:26:16.576Z,54.98
2019-02-05T09:27:23.213Z,53.60
2019-02-05T09:28:29.271Z,53.60
2019-02-05T09:29:36.062Z,46.53
2019-02-05T09:30:42.602Z,50.92
2019-02-05T09:31:49.021Z,52.35
2019-02-05T09:32:58.515Z,50.43
2019-02-05T09:34:05.923Z,47.33
2019-02-05T09:35:11.980Z,49.18
2019-02-05T09:36:18.620Z,50.92
2019-02-05T09:37:25.201Z,51.53
2019-02-05T09:38:32.740Z,50.03
2019-02-05T09:39:39.292Z,52.70
2019-02-05T09:40:47.020Z,54.15
2019-02-05T09:41:53.468Z,49.13
2019-02-05T09:43:00.773Z,52.50
2019-02-05T09:44:07.448Z,49.33
2019-02-05T09:45:13.894Z,50.88
2019-02-05T09:46:21.037Z,47.80
2019-02-05T09:47:27.873Z,51.40
2019-02-05T09:48:37.159Z,49.63
2019-02-05T09:49:43.102Z,52.17
2019-02-05T09:50:51.142Z,50.28
2019-02-05T09:51:57.245Z,50.55
2019-02-05T09:53:06.539Z,53.20
2019-02-05T09:54:13.513Z,51.25
2019-02-05T09:55:21.451Z,48.05
2019-02-05T09:56:30.461Z,47.73
2019-02-05T09:57:38.080Z,50.78
2019-02-05T09:58:47.464Z,54.33
2019-02-05T09:59:54.053Z,49.08
2019-02-05T10:00:59.936Z,56.25
2019-02-05T10:02:07.814Z,48.33
2019-02-05T10:03:14.350Z,56.28
2019-02-05T10:04:20.773Z,53.90
2019-02-05T10:05:33.272Z,54.25
2019-02-05T10:06:39.559Z,51.18
2019-02-05T10:07:45.840Z,53.52
2019-02-05T10:08:54.100Z,54.15
2019-02-05T10:10:01.541Z,49.03
2019-02-05T10:11:07.793Z,53.10
2019-02-05T10:12:14.440Z,44.15
2019-02-05T10:13:21.019Z,48.10
2019-02-05T10:14:30.013Z,48.52
2019-02-05T10:15:44.113Z,50.33
2019-02-05T10:16:52.232Z,49.27
2019-02-05T10:17:58.673Z,50.05
2019-02-05T10:19:05.407Z,48.95
2019-02-05T10:20:14.681Z,50.15
2019-02-05T10:21:22.337Z,45.48
2019-02-05T10:22:29.007Z,45.78
2019-02-05T10:23:36.852Z,49.67
2019-02-05T10:24:43.093Z,44.42
2019-02-05T10:25:49.373Z,50.78
2019-02-05T10:26:56.141Z,52.23
2019-02-05T10:28:03.494Z,47.83
2019-02-05T10:29:11.136Z,44.18
2019-02-05T10:30:30.840Z,47.55
2019-02-05T10:31:39.972Z,52.05
2019-02-05T10:32:47.662Z,52.88
2019-02-05T10:33:55.493Z,53.05
2019-02-05T10:35:01.568Z,50.05
2019-02-05T10:36:09.455Z,47.03
2019-02-05T10:37:16.481Z,46.33
2019-02-05T10:38:22.430Z,51.68
2019-02-05T10:39:28.472Z,49.50
2019-02-05T10:40:34.681Z,52.55
2019-02-05T10:41:41.501Z,51.40
2019-02-05T10:42:47.434Z,50.40
2019-02-05T10:43:53.441Z,51.88
2019-02-05T10:44:59.770Z,51.00
2019-02-05T10:46:05.944Z,52.70
2019-02-05T10:47:11.920Z,50.58
2019-02-05T10:48:18.177Z,50.12
2019-02-05T10:49:24.801Z,53.80
2019-02-05T10:50:30.711Z,52.95
2019-02-05T10:51:37.176Z,53.98
2019-02-05T10:52:43.074Z,60.12
2019-02-05T10:53:48.936Z,57.65
2019-02-05T10:54:55.381Z,57.33
2019-02-05T10:56:02.461Z,58.95
2019-02-05T10:57:10.048Z,48.83
2019-02-05T10:58:16.801Z,59.70
2019-02-05T10:59:23.333Z,51.55
2019-02-05T11:00:33.701Z,52.73
2019-02-05T11:01:40.353Z,54.55
2019-02-05T11:02:46.894Z,51.73
2019-02-05T11:03:53.174Z,49.38
2019-02-05T11:04:59.253Z,52.33
2019-02-05T11:06:05.601Z,54.18
2019-02-05T11:07:14.980Z,52.48
2019-02-05T11:08:20.881Z,56.60
2019-02-05T11:09:26.640Z,55.43
2019-02-05T11:10:32.481Z,56.05
2019-02-05T11:11:39.780Z,56.48
2019-02-05T11:12:48.721Z,51.65
2019-02-05T11:13:56.233Z,52.05
2019-02-05T11:15:01.980Z,56.48
2019-02-05T11:16:09.811Z,54.63
2019-02-05T11:17:16.839Z,59.50
2019-02-05T11:18:24.580Z,55.73
2019-02-05T11:19:31.773Z,54.65
2019-02-05T11:20:37.641Z,54.10
2019-02-05T11:21:44.013Z,52.05
2019-02-05T11:22:49.882Z,53.55
2019-02-05T11:23:56.172Z,53.73
2019-02-05T11:25:04.381Z,53.78
2019-02-05T11:26:11.776Z,57.90
2019-02-05T11:27:19.205Z,52.27
2019-02-05T11:28:25.922Z,50.52
2019-02-05T11:29:33.421Z,55.38
2019-02-05T11:30:43.340Z,53.00
2019-02-05T11:31:49.582Z,50.88
2019-02-05T11:32:55.422Z,51.77
2019-02-05T11:34:01.382Z,49.00
2019-02-05T11:35:09.443Z,49.63
2019-02-05T11:36:15.293Z,51.83
2019-02-05T11:37:21.663Z,52.67
2019-02-05T11:38:27.973Z,57.48
2019-02-05T11:39:35.604Z,53.75
2019-02-05T11:40:43.600Z,54.48
2019-02-05T11:41:50.700Z,57.95
2019-02-05T11:42:56.713Z,56.65
2019-02-05T11:44:03.171Z,55.30
2019-02-05T11:45:17.476Z,54.03
2019-02-05T11:46:26.504Z,58.45
2019-02-05T11:47:33.053Z,56.08
2019-02-05T11:48:42.603Z,55.52
2019-02-05T11:49:50.188Z,53.63
2019-02-05T11:50:55.986Z,54.20
2019-02-05T11:52:04.605Z,56.88
2019-02-05T11:53:10.520Z,54.70
2019-02-05T11:54:20.195Z,49.85
2019-02-05T11:55:34.101Z,53.68
2019-02-05T11:56:40.221Z,52.93
2019-02-05T11:57:47.508Z,52.30
2019-02-05T11:58:55.041Z,51.02
2019-02-05T12:00:01.861Z,48.83
2019-02-05T12:01:10.901Z,51.13
2019-02-05T12:02:20.807Z,57.75
2019-02-05T12:03:26.842Z,52.27
2019-02-05T12:04:32.957Z,57.03
2019-02-05T12:05:38.936Z,55.78
2019-02-05T12:06:46.540Z,54.55
2019-02-05T12:07:52.600Z,49.53
2019-02-05T12:08:59.134Z,52.17
2019-02-05T12:10:14.709Z,49.42
2019-02-05T12:11:22.273Z,50.05
2019-02-05T12:12:29.668Z,50.05
2019-02-05T12:13:36.740Z,51.55
2019-02-05T12:14:43.120Z,53.08
2019-02-05T12:15:49.854Z,51.75
2019-02-05T12:16:56.042Z,50.67
2019-02-05T12:18:01.856Z,49.27
2019-02-05T12:19:08.120Z,53.87
2019-02-05T12:20:17.622Z,50.50
2019-02-05T12:21:24.516Z,49.63
2019-02-05T12:22:30.421Z,55.25
2019-02-05T12:23:36.911Z,55.33
2019-02-05T12:24:42.940Z,53.25
2019-02-05T12:25:48.924Z,61.98
2019-02-05T12:26:57.684Z,55.52
2019-02-05T12:28:03.893Z,65.83
2019-02-05T12:29:16.900Z,57.27
2019-02-05T12:30:44.936Z,56.28
2019-02-05T12:31:50.274Z,49.95
2019-02-05T12:32:56.023Z,54.77
2019-02-05T12:34:01.961Z,58.08
2019-02-05T12:35:08.352Z,54.75
2019-02-05T12:36:16.614Z,53.33
2019-02-05T12:37:22.513Z,54.03
2019-02-05T12:38:30.823Z,56.58
2019-02-05T12:39:37.020Z,55.23
2019-02-05T12:40:43.460Z,55.33
2019-02-05T12:41:50.876Z,55.67
2019-02-05T12:42:57.374Z,61.35
2019-02-05T12:44:03.263Z,55.35
2019-02-05T12:45:13.841Z,55.08
2019-02-05T12:46:24.562Z,50.28
2019-02-05T12:47:30.429Z,54.77
2019-02-05T12:48:36.709Z,55.25
2019-02-05T12:49:42.700Z,57.67
2019-02-05T12:50:48.806Z,56.13
2019-02-05T12:51:55.621Z,58.33
2019-02-05T12:53:01.640Z,54.95
2019-02-05T12:54:07.608Z,52.78
2019-02-05T12:55:16.088Z,54.77
2019-02-05T12:56:23.968Z,54.33
2019-02-05T12:57:30.179Z,52.62
2019-02-05T12:58:36.420Z,53.63
2019-02-05T12:59:42.644Z,55.30
2019-02-05T13:00:59.737Z,56.60
2019-02-05T13:01:59.555Z,49.98
2019-02-05T13:03:06.122Z,45.60
2019-02-05T13:04:13.753Z,48.33
2019-02-05T13:05:22.712Z,46.23
2019-02-05T13:06:32.484Z,42.58
2019-02-05T13:07:40.521Z,43.80
2019-02-05T13:08:46.541Z,40.67
2019-02-05T13:09:52.394Z,46.05
2019-02-05T13:10:58.336Z,44.40
2019-02-05T13:12:06.153Z,42.98
2019-02-05T13:13:12.416Z,46.58
2019-02-05T13:14:20.093Z,43.83
2019-02-05T13:15:29.640Z,39.33
2019-02-05T13:16:35.842Z,44.77
2019-02-05T13:17:42.560Z,41.13
2019-02-05T13:18:48.530Z,48.50
2019-02-05T13:19:55.346Z,40.78
2019-02-05T13:21:02.162Z,37.70
2019-02-05T13:22:09.480Z,41.63
2019-02-05T13:23:19.091Z,38.63
2019-02-05T13:24:28.500Z,43.90
2019-02-05T13:25:34.962Z,38.73
2019-02-05T13:26:41.181Z,37.95
2019-02-05T13:27:47.571Z,38.67
2019-02-05T13:28:55.693Z,41.37
2019-02-05T13:30:02.879Z,38.40
2019-02-05T13:31:10.281Z,40.05
2019-02-05T13:32:20.242Z,38.45
2019-02-05T13:33:27.560Z,40.58
2019-02-05T13:34:37.088Z,40.38
2019-02-05T13:35:44.085Z,49.15
2019-02-05T13:36:51.397Z,37.65
2019-02-05T13:37:57.798Z,36.08
2019-02-05T13:39:05.075Z,34.03
2019-02-05T13:40:18.815Z,39.42
2019-02-05T13:41:29.082Z,40.58
2019-02-05T13:42:35.160Z,39.53
2019-02-05T13:43:42.181Z,46.00
2019-02-05T13:44:50.701Z,48.48
2019-02-05T13:45:57.530Z,38.30
2019-02-05T13:47:05.480Z,41.98
2019-02-05T13:48:12.413Z,36.65
2019-02-05T13:49:21.749Z,33.10
2019-02-05T13:50:33.532Z,30.35
2019-02-05T13:51:40.413Z,37.03
2019-02-05T13:52:47.400Z,36.58
2019-02-05T13:53:54.380Z,34.90
2019-02-05T13:55:00.774Z,36.35
2019-02-05T13:56:07.477Z,38.15
2019-02-05T13:57:13.580Z,38.65
2019-02-05T13:58:20.720Z,37.25
2019-02-05T13:59:27.428Z,39.95
2019-02-05T14:00:49.540Z,38.85
2019-02-05T14:01:57.234Z,36.33
2019-02-05T14:03:04.663Z,34.03
2019-02-05T14:04:11.720Z,38.75
2019-02-05T14:05:18.209Z,35.85
2019-02-05T14:06:26.087Z,36.73
2019-02-05T14:07:32.883Z,37.98
2019-02-05T14:08:39.333Z,33.95
2019-02-05T14:09:46.350Z,36.08
2019-02-05T14:10:52.848Z,35.33
2019-02-05T14:11:59.300Z,37.55
2019-02-05T14:13:05.682Z,35.70
2019-02-05T14:14:12.648Z,32.17
2019-02-05T14:15:24.913Z,38.30
2019-02-05T14:16:31.241Z,40.23
2019-02-05T14:17:38.521Z,32.05
2019-02-05T14:18:54.679Z,31.90
2019-02-05T14:19:52.575Z,33.15
2019-02-05T14:20:59.561Z,30.17
2019-02-05T14:22:06.560Z,33.45
2019-02-05T14:23:13.225Z,43.35
2019-02-05T14:24:19.490Z,34.35
2019-02-05T14:25:25.599Z,34.73
2019-02-05T14:26:31.578Z,37.35
2019-02-05T14:27:38.133Z,37.28
2019-02-05T14:28:45.322Z,38.15
2019-02-05T14:29:52.561Z,36.55
2019-02-05T14:31:01.082Z,37.70
2019-02-05T14:32:07.725Z,39.98
2019-02-05T14:33:14.419Z,36.53
2019-02-05T14:34:21.873Z,41.37
2019-02-05T14:35:28.180Z,35.78
2019-02-05T14:36:34.685Z,41.50
2019-02-05T14:37:52.280Z,37.70
2019-02-05T14:38:59.581Z,34.03
2019-02-05T14:40:19.680Z,37.53
2019-02-05T14:41:27.055Z,38.45
2019-02-05T14:42:33.258Z,35.52
2019-02-05T14:43:40.353Z,35.00
2019-02-05T14:44:47.955Z,34.48
2019-02-05T14:45:54.385Z,31.85
2019-02-05T14:47:01.100Z,37.13
2019-02-05T14:48:08.854Z,32.95
2019-02-05T14:49:14.921Z,33.25